createdAt,value
2019-01-06T00:01:46.349Z,70.47
2019-01-06T00:04:35.059Z,69.87
2019-01-06T00:07:23.511Z,69.94
2019-01-06T00:10:12.243Z,69.87
2019-01-06T00:12:52.173Z,70.24
2019-01-06T00:15:40.869Z,70.23
2019-01-06T00:18:41.495Z,70.42
2019-01-06T00:21:28.731Z,70.68
2019-01-06T00:24:26.058Z,69.70
2019-01-06T00:27:32.920Z,69.15
2019-01-06T00:30:24.225Z,69.19
2019-01-06T00:33:16.284Z,68.78
2019-01-06T00:36:03.642Z,68.64
2019-01-06T00:38:48.595Z,68.52
2019-01-06T00:41:46.063Z,67.93
2019-01-06T00:44:33.156Z,67.95
2019-01-06T00:47:27.888Z,67.40
2019-01-06T00:50:15.271Z,67.14
2019-01-06T00:53:02.364Z,67.20
2019-01-06T00:55:49.518Z,67.29
2019-01-06T00:58:36.679Z,67.00
2019-01-06T01:01:23.667Z,67.12
2019-01-06T01:04:10.737Z,67.26
2019-01-06T01:07:11.038Z,67.30
2019-01-06T01:09:58.096Z,67.60
2019-01-06T01:12:46.474Z,68.20
2019-01-06T01:15:49.966Z,68.56
2019-01-06T01:18:53.555Z,69.28
2019-01-06T01:21:40.710Z,69.59
2019-01-06T01:24:37.931Z,69.39
2019-01-06T01:27:24.899Z,69.53
2019-01-06T01:30:19.344Z,69.26
2019-01-06T01:33:07.754Z,68.90
2019-01-06T01:36:08.232Z,68.66
2019-01-06T01:38:55.567Z,68.42
2019-01-06T01:41:44.939Z,68.33
2019-01-06T01:44:32.237Z,68.02
2019-01-06T01:47:30.268Z,68.45
2019-01-06T01:50:27.887Z,68.45
2019-01-06T01:53:15.425Z,68.58
2019-01-06T01:56:04.113Z,68.85
2019-01-06T01:59:01.692Z,68.94
2019-01-06T02:01:53.137Z,69.21
2019-01-06T02:04:50.585Z,69.52
2019-01-06T02:07:46.736Z,69.57
2019-01-06T02:10:50.750Z,69.67
2019-01-06T02:13:37.950Z,69.65
2019-01-06T02:16:35.421Z,69.76
2019-01-06T02:19:22.777Z,70.09
2019-01-06T02:22:14.400Z,70.74
2019-01-06T02:25:08.378Z,71.15
2019-01-06T02:28:09.086Z,71.29
2019-01-06T02:31:09.696Z,71.52
2019-01-06T02:34:03.936Z,71.80
2019-01-06T02:36:51.197Z,71.95
2019-01-06T02:39:38.246Z,72.47
2019-01-06T02:42:29.381Z,72.70
2019-01-06T02:45:10.677Z,72.37
2019-01-06T02:47:59.160Z,71.78
2019-01-06T02:50:47.507Z,71.79
2019-01-06T02:53:41.989Z,71.91
2019-01-06T02:56:29.266Z,71.40
2019-01-06T02:59:16.525Z,71.66
2019-01-06T03:02:03.912Z,71.60
2019-01-06T03:04:50.246Z,71.63
2019-01-06T03:07:38.629Z,71.47
2019-01-06T03:10:25.910Z,71.44
2019-01-06T03:13:23.217Z,71.80
2019-01-06T03:16:10.577Z,71.53
2019-01-06T03:19:05.136Z,72.05
2019-01-06T03:21:59.708Z,72.26
2019-01-06T03:24:46.882Z,72.30
2019-01-06T03:27:47.041Z,72.28
2019-01-06T03:30:34.551Z,72.45
2019-01-06T03:33:25.759Z,72.48
2019-01-06T03:36:14.160Z,72.26
2019-01-06T03:39:01.585Z,72.44
2019-01-06T03:41:48.885Z,72.24
2019-01-06T03:44:40.084Z,72.33
2019-01-06T03:47:27.543Z,72.10
2019-01-06T03:50:11.136Z,72.19
2019-01-06T03:53:02.625Z,72.62
2019-01-06T03:55:55.211Z,72.58
2019-01-06T03:58:55.145Z,72.28
2019-01-06T04:01:46.332Z,72.40
2019-01-06T04:04:33.450Z,72.38
2019-01-06T04:07:34.299Z,72.65
2019-01-06T04:10:37.284Z,72.25
2019-01-06T04:13:31.760Z,72.27
2019-01-06T04:16:23.278Z,72.22
2019-01-06T04:19:10.708Z,72.42
2019-01-06T04:21:58.997Z,72.81
2019-01-06T04:24:47.410Z,72.56
2019-01-06T04:27:34.430Z,72.40
2019-01-06T04:30:21.708Z,72.53
2019-01-06T04:33:10.144Z,72.57
2019-01-06T04:36:01.721Z,72.03
2019-01-06T04:38:50.182Z,72.29
2019-01-06T04:41:37.565Z,72.51
2019-01-06T04:44:44.102Z,72.77
2019-01-06T04:47:36.452Z,72.78
2019-01-06T04:50:43.510Z,72.75
2019-01-06T04:53:43.906Z,72.53
2019-01-06T04:56:30.868Z,72.62
2019-01-06T04:59:28.243Z,73.24
2019-01-06T05:02:16.552Z,73.29
2019-01-06T05:05:04.000Z,73.49
2019-01-06T05:07:46.991Z,73.32
2019-01-06T05:10:35.356Z,73.24
2019-01-06T05:13:16.822Z,73.19
2019-01-06T05:16:03.772Z,73.39
2019-01-06T05:18:48.437Z,73.55
2019-01-06T05:21:40.052Z,74.17
2019-01-06T05:24:31.730Z,74.24
2019-01-06T05:27:23.388Z,73.86
2019-01-06T05:30:30.171Z,73.53
2019-01-06T05:33:17.503Z,73.55
2019-01-06T05:36:08.875Z,73.28
2019-01-06T05:38:59.982Z,73.01
2019-01-06T05:41:48.361Z,72.97
2019-01-06T05:44:36.043Z,72.99
2019-01-06T05:47:24.457Z,73.03
2019-01-06T05:50:25.156Z,72.86
2019-01-06T05:53:09.558Z,72.61
2019-01-06T05:55:57.038Z,72.89
2019-01-06T05:58:51.267Z,73.00
2019-01-06T06:01:48.788Z,72.87
2019-01-06T06:04:37.140Z,73.07
2019-01-06T06:07:27.674Z,73.52
2019-01-06T06:10:25.324Z,73.57
2019-01-06T06:13:08.377Z,73.61
2019-01-06T06:15:55.661Z,73.49
2019-01-06T06:18:47.011Z,73.58
2019-01-06T06:21:37.173Z,73.32
2019-01-06T06:24:25.560Z,72.86
2019-01-06T06:27:13.961Z,72.50
2019-01-06T06:30:02.325Z,72.18
2019-01-06T06:32:49.399Z,71.98
2019-01-06T06:35:36.704Z,71.53
2019-01-06T06:38:24.157Z,71.30
2019-01-06T06:41:11.531Z,71.03
2019-01-06T06:44:18.103Z,71.30
2019-01-06T06:47:09.147Z,71.27
2019-01-06T06:50:06.169Z,69.92
2019-01-06T06:52:55.260Z,69.94
2019-01-06T06:55:49.460Z,69.84
2019-01-06T06:58:37.845Z,69.57
2019-01-06T07:02:05.541Z,69.52
2019-01-06T07:04:52.811Z,69.13
2019-01-06T07:07:47.334Z,69.34
2019-01-06T07:10:34.540Z,69.93
2019-01-06T07:13:23.449Z,70.53
2019-01-06T07:16:21.087Z,70.83
2019-01-06T07:19:18.583Z,70.70
2019-01-06T07:22:05.800Z,71.04
2019-01-06T07:25:06.480Z,71.31
2019-01-06T07:27:58.072Z,72.21
2019-01-06T07:30:43.152Z,70.91
2019-01-06T07:33:40.848Z,70.56
2019-01-06T07:36:24.118Z,70.45
2019-01-06T07:39:06.641Z,69.84
2019-01-06T07:41:55.411Z,69.37
2019-01-06T07:44:42.497Z,69.19
2019-01-06T07:47:30.904Z,68.78
2019-01-06T07:50:18.989Z,68.01
2019-01-06T07:53:19.390Z,67.52
2019-01-06T07:56:25.963Z,66.96
2019-01-06T07:59:13.315Z,66.68
2019-01-06T08:02:04.507Z,66.48
2019-01-06T08:04:51.864Z,65.89
2019-01-06T08:07:46.588Z,65.54
2019-01-06T08:10:30.589Z,65.46
2019-01-06T08:13:15.774Z,65.04
2019-01-06T08:16:13.332Z,65.78
2019-01-06T08:18:58.708Z,64.95
2019-01-06T08:21:47.093Z,65.61
2019-01-06T08:24:39.089Z,65.08
2019-01-06T08:27:26.362Z,65.12
2019-01-06T08:30:13.537Z,64.91
2019-01-06T08:33:00.969Z,65.70
2019-01-06T08:35:41.513Z,65.72
2019-01-06T08:38:32.774Z,65.64
2019-01-06T08:41:21.120Z,65.57
2019-01-06T08:44:08.213Z,65.92
2019-01-06T08:46:55.534Z,66.52
2019-01-06T08:49:42.741Z,66.27
2019-01-06T08:52:37.489Z,66.48
2019-01-06T08:55:24.883Z,66.30
2019-01-06T08:58:16.321Z,65.82
2019-01-06T09:01:03.534Z,66.26
2019-01-06T09:03:50.649Z,66.95
2019-01-06T09:06:38.157Z,66.71
2019-01-06T09:09:26.479Z,66.44
2019-01-06T09:12:24.212Z,66.44
2019-01-06T09:15:17.456Z,65.92
2019-01-06T09:18:17.737Z,65.80
2019-01-06T09:21:14.530Z,66.11
2019-01-06T09:24:01.901Z,66.07
2019-01-06T09:26:48.952Z,66.08
2019-01-06T09:29:37.402Z,65.97
2019-01-06T09:32:25.556Z,65.78
2019-01-06T09:35:32.739Z,66.07
2019-01-06T09:38:20.397Z,65.66
2019-01-06T09:41:11.866Z,66.08
2019-01-06T09:43:59.112Z,66.29
2019-01-06T09:46:47.115Z,67.08
2019-01-06T09:49:35.641Z,67.18
2019-01-06T09:52:30.120Z,67.19
2019-01-06T09:55:17.512Z,67.34
2019-01-06T09:58:24.481Z,67.23
2019-01-06T10:01:15.454Z,66.98
2019-01-06T10:04:02.888Z,67.29
2019-01-06T10:06:51.323Z,67.49
2019-01-06T10:09:39.896Z,66.84
2019-01-06T10:12:27.520Z,67.08
2019-01-06T10:15:15.583Z,67.37
2019-01-06T10:18:19.218Z,67.67
2019-01-06T10:21:07.665Z,67.17
2019-01-06T10:23:59.190Z,67.31
2019-01-06T10:26:44.877Z,66.76
2019-01-06T10:29:45.294Z,66.63
2019-01-06T10:32:33.703Z,66.94
2019-01-06T10:38:22.558Z,66.51
2019-01-06T10:41:10.939Z,66.15
2019-01-06T10:43:55.018Z,66.16
2019-01-06T10:46:45.652Z,65.63
2019-01-06T10:49:34.033Z,65.96
2019-01-06T10:52:27.936Z,65.94
2019-01-06T10:55:16.954Z,65.63
2019-01-06T10:58:14.589Z,65.25
2019-01-06T11:01:01.873Z,65.05
2019-01-06T11:03:58.606Z,64.81
2019-01-06T11:09:53.368Z,64.65
2019-01-06T11:12:42.004Z,64.27
2019-01-06T11:15:30.454Z,64.06
2019-01-06T11:21:36.503Z,63.58
2019-01-06T11:24:24.867Z,63.33
2019-01-06T11:27:31.246Z,63.15
2019-01-06T11:30:22.672Z,63.27
2019-01-06T11:33:09.878Z,62.97
2019-01-06T11:36:04.291Z,62.55
2019-01-06T11:38:55.232Z,61.62
2019-01-06T11:41:49.938Z,61.69
2019-01-06T11:44:37.091Z,61.44
2019-01-06T11:47:40.930Z,61.53
2019-01-06T11:50:29.405Z,61.35
2019-01-06T11:53:20.991Z,61.54
2019-01-06T11:56:25.315Z,61.61
2019-01-06T11:59:12.399Z,61.49
2019-01-06T12:02:09.754Z,61.47
2019-01-06T12:05:06.179Z,61.42
2019-01-06T12:07:53.233Z,60.94
2019-01-06T12:10:40.725Z,60.56
2019-01-06T12:13:33.418Z,60.87
2019-01-06T12:16:21.853Z,60.64
2019-01-06T12:19:23.008Z,60.92
2019-01-06T12:22:09.872Z,60.57
2019-01-06T12:25:05.577Z,60.57
2019-01-06T12:27:52.334Z,60.96
2019-01-06T12:30:59.128Z,60.98
2019-01-06T12:33:45.666Z,60.63
2019-01-06T12:36:25.378Z,61.29
2019-01-06T12:39:13.784Z,61.16
2019-01-06T12:42:00.618Z,61.36
2019-01-06T12:45:07.255Z,61.11
2019-01-06T12:48:01.824Z,61.38
2019-01-06T12:50:50.195Z,61.21
2019-01-06T12:53:40.358Z,61.66
2019-01-06T12:56:25.704Z,62.00
2019-01-06T12:59:29.351Z,62.17
2019-01-06T13:02:16.222Z,62.03
2019-01-06T13:05:22.833Z,62.19
2019-01-06T13:08:20.368Z,61.81
2019-01-06T13:11:13.690Z,62.76
2019-01-06T13:14:02.190Z,61.99
2019-01-06T13:16:49.339Z,61.98
2019-01-06T13:19:53.089Z,61.27
2019-01-06T13:22:40.632Z,60.75
2019-01-06T13:25:40.971Z,60.84
2019-01-06T13:28:38.304Z,60.52
2019-01-06T13:31:26.736Z,59.87
2019-01-06T13:34:08.361Z,60.13
2019-01-06T13:37:08.793Z,59.71
2019-01-06T13:40:03.060Z,59.68
2019-01-06T13:42:50.510Z,60.02
2019-01-06T13:45:39.064Z,60.24
2019-01-06T13:48:27.424Z,60.19
2019-01-06T13:51:21.714Z,60.13
2019-01-06T13:54:09.025Z,60.19
2019-01-06T13:57:04.449Z,59.91
2019-01-06T14:00:07.957Z,59.88
2019-01-06T14:03:02.578Z,59.73
2019-01-06T14:05:49.879Z,59.46
2019-01-06T14:08:37.458Z,59.19
2019-01-06T14:11:31.707Z,59.58
2019-01-06T14:14:18.774Z,59.54
2019-01-06T14:17:05.906Z,59.60
2019-01-06T14:20:03.533Z,59.73
2019-01-06T14:22:50.507Z,59.47
2019-01-06T14:25:37.835Z,59.48
2019-01-06T14:28:26.226Z,59.73
2019-01-06T14:31:13.155Z,59.73
2019-01-06T14:33:57.520Z,59.35
2019-01-06T14:36:44.165Z,59.81
2019-01-06T14:39:41.880Z,59.69
2019-01-06T14:42:39.727Z,59.41
2019-01-06T14:45:38.823Z,59.80
2019-01-06T14:48:30.320Z,59.88
2019-01-06T14:51:17.354Z,60.37
2019-01-06T14:54:20.860Z,60.30
2019-01-06T14:57:09.306Z,60.56
2019-01-06T15:00:00.745Z,60.57
2019-01-06T15:02:55.393Z,60.70
2019-01-06T15:05:49.750Z,60.70
2019-01-06T15:08:38.160Z,60.90
2019-01-06T15:11:25.518Z,61.33
2019-01-06T15:14:22.969Z,61.93
2019-01-06T15:17:11.209Z,62.15
2019-01-06T15:19:58.508Z,62.29
2019-01-06T15:22:47.982Z,62.56
2019-01-06T15:25:48.371Z,62.81
2019-01-06T15:28:53.274Z,62.97
2019-01-06T15:31:57.243Z,63.07
2019-01-06T15:34:48.371Z,63.16
2019-01-06T15:37:36.795Z,63.66
2019-01-06T15:40:29.974Z,63.76
2019-01-06T15:43:17.198Z,63.94
2019-01-06T15:46:14.852Z,64.03
2019-01-06T15:49:02.109Z,64.11
2019-01-06T15:51:49.237Z,64.17
2019-01-06T15:54:36.201Z,64.46
2019-01-06T15:57:23.015Z,64.59
2019-01-06T16:00:26.561Z,64.90
2019-01-06T16:03:29.535Z,64.75
2019-01-06T16:06:16.416Z,64.76
2019-01-06T16:09:23.136Z,64.84
2019-01-06T16:12:09.791Z,64.63
2019-01-06T16:15:00.765Z,64.76
2019-01-06T16:18:01.337Z,64.80
2019-01-06T16:20:46.304Z,64.68
2019-01-06T16:23:49.825Z,64.59
2019-01-06T16:26:35.680Z,64.74
2019-01-06T16:29:29.895Z,64.76
2019-01-06T16:32:18.282Z,64.69
2019-01-06T16:35:15.565Z,64.74
2019-01-06T16:38:10.196Z,64.88
2019-01-06T16:40:57.659Z,65.47
2019-01-06T16:43:38.280Z,65.61
2019-01-06T16:46:29.956Z,65.77
2019-01-06T16:49:18.346Z,66.07
2019-01-06T16:52:05.679Z,66.24
2019-01-06T16:55:06.575Z,66.12
2019-01-06T16:58:01.065Z,66.06
2019-01-06T17:00:58.589Z,66.22
2019-01-06T17:03:46.977Z,66.14
2019-01-06T17:06:53.877Z,66.27
2019-01-06T17:09:51.248Z,66.47
2019-01-06T17:12:38.294Z,66.51
2019-01-06T17:15:25.689Z,66.67
2019-01-06T17:18:14.145Z,66.61
2019-01-06T17:21:01.623Z,66.56
2019-01-06T17:23:48.863Z,66.84
2019-01-06T17:26:32.242Z,66.71
2019-01-06T17:29:24.394Z,66.86
2019-01-06T17:32:22.092Z,66.95
2019-01-06T17:35:09.896Z,66.80
2019-01-06T17:37:56.878Z,66.52
2019-01-06T17:40:44.223Z,66.63
2019-01-06T17:43:32.618Z,66.62
2019-01-06T17:46:20.999Z,66.59
2019-01-06T17:49:09.481Z,66.33
2019-01-06T17:52:03.890Z,66.22
2019-01-06T17:54:52.234Z,66.46
2019-01-06T17:57:33.788Z,66.60
2019-01-06T18:00:20.855Z,66.53
2019-01-06T18:03:12.214Z,66.53
2019-01-06T18:05:59.370Z,66.50
2019-01-06T18:08:53.617Z,66.69
2019-01-06T18:11:47.835Z,66.85
2019-01-06T18:14:34.930Z,66.83
2019-01-06T18:17:22.302Z,66.75
2019-01-06T18:20:04.560Z,66.59
2019-01-06T18:22:59.358Z,66.42
2019-01-06T18:25:46.388Z,66.48
2019-01-06T18:28:39.523Z,66.49
2019-01-06T18:31:33.738Z,66.74
2019-01-06T18:34:22.209Z,66.37
2019-01-06T18:37:22.555Z,66.55
2019-01-06T18:40:14.280Z,66.67
2019-01-06T18:43:02.968Z,66.83
2019-01-06T18:45:49.979Z,66.63
2019-01-06T18:48:53.845Z,66.25
2019-01-06T18:51:54.733Z,66.41
2019-01-06T18:54:46.188Z,66.68
2019-01-06T18:57:46.838Z,66.92
2019-01-06T19:00:51.933Z,66.96
2019-01-06T19:03:28.521Z,66.74
2019-01-06T19:06:32.127Z,66.76
2019-01-06T19:09:19.126Z,66.56
2019-01-06T19:12:06.275Z,66.57
2019-01-06T19:14:53.643Z,66.64
2019-01-06T19:17:51.168Z,66.77
2019-01-06T19:20:38.280Z,66.78
2019-01-06T19:23:35.494Z,66.75
2019-01-06T19:26:22.855Z,66.55
2019-01-06T19:29:21.050Z,66.54
2019-01-06T19:32:09.656Z,66.30
2019-01-06T19:35:01.984Z,66.49
2019-01-06T19:38:05.727Z,66.62
2019-01-06T19:41:04.020Z,66.92
2019-01-06T19:44:03.625Z,67.12
2019-01-06T19:46:55.117Z,67.38
2019-01-06T19:49:43.711Z,67.40
2019-01-06T19:52:34.314Z,67.71
2019-01-06T19:55:21.473Z,67.81
2019-01-06T19:58:09.888Z,67.83
2019-01-06T20:01:01.349Z,67.94
2019-01-06T20:03:49.773Z,68.13
2019-01-06T20:06:38.143Z,68.00
2019-01-06T20:09:26.309Z,68.15
2019-01-06T20:12:20.793Z,68.11
2019-01-06T20:15:06.199Z,67.89
2019-01-06T20:17:54.339Z,68.21
2019-01-06T20:20:36.349Z,67.93
2019-01-06T20:23:23.443Z,68.05
2019-01-06T20:26:14.612Z,67.90
2019-01-06T20:29:02.312Z,68.03
2019-01-06T20:31:50.811Z,67.52
2019-01-06T20:34:39.215Z,67.71
2019-01-06T20:37:42.677Z,67.68
2019-01-06T20:40:37.106Z,67.44
2019-01-06T20:43:26.609Z,67.64
2019-01-06T20:46:16.640Z,67.84
2019-01-06T20:49:14.505Z,68.04
2019-01-06T20:52:06.776Z,67.89
2019-01-06T20:55:13.633Z,67.72
2019-01-06T20:58:20.274Z,67.68
2019-01-06T21:01:22.930Z,67.98
2019-01-06T21:04:14.160Z,67.74
2019-01-06T21:07:03.011Z,67.55
2019-01-06T21:09:57.295Z,67.09
2019-01-06T21:12:54.880Z,67.15
2019-01-06T21:15:52.756Z,67.42
2019-01-06T21:18:41.272Z,67.32
2019-01-06T21:21:29.719Z,67.61
2019-01-06T21:24:16.117Z,67.50
2019-01-06T21:27:03.184Z,67.36
2019-01-06T21:29:53.837Z,67.42
2019-01-06T21:32:41.092Z,67.11
2019-01-06T21:35:34.972Z,67.08
2019-01-06T21:38:32.091Z,67.06
2019-01-06T21:41:30.052Z,66.77
2019-01-06T21:44:17.447Z,66.64
2019-01-06T21:47:18.213Z,66.58
2019-01-06T21:50:06.634Z,66.25
2019-01-06T21:52:56.098Z,66.48
2019-01-06T21:55:50.556Z,65.96
2019-01-06T21:58:43.502Z,66.03
2019-01-06T22:01:35.206Z,65.82
2019-01-06T22:04:23.606Z,65.80
2019-01-06T22:07:15.079Z,65.87
2019-01-06T22:10:21.621Z,65.44
2019-01-06T22:13:12.544Z,65.52
2019-01-06T22:16:12.369Z,65.09
2019-01-06T22:18:59.655Z,65.33
2019-01-06T22:21:43.268Z,65.57
2019-01-06T22:24:37.781Z,65.50
2019-01-06T22:27:35.040Z,65.46
2019-01-06T22:30:30.219Z,65.27
2019-01-06T22:33:21.817Z,65.22
2019-01-06T22:36:16.423Z,65.04
2019-01-06T22:39:03.317Z,65.45
2019-01-06T22:42:03.925Z,65.39
2019-01-06T22:44:52.340Z,65.38
2019-01-06T22:47:43.607Z,65.24
2019-01-06T22:50:24.086Z,65.35
2019-01-06T22:53:11.326Z,65.14
2019-01-06T22:56:11.681Z,65.12
2019-01-06T22:58:58.955Z,64.91
2019-01-06T23:01:46.323Z,64.87
2019-01-06T23:04:33.690Z,64.53
2019-01-06T23:07:33.013Z,64.44
2019-01-06T23:10:20.186Z,64.45
2019-01-06T23:13:05.107Z,64.37
2019-01-06T23:15:59.545Z,64.01
2019-01-06T23:18:46.863Z,64.23
2019-01-06T23:21:47.510Z,64.12
2019-01-06T23:24:34.811Z,64.36
2019-01-06T23:27:22.028Z,64.84
2019-01-06T23:30:09.313Z,65.05
2019-01-06T23:33:03.655Z,65.07
2019-01-06T23:35:54.917Z,64.93
2019-01-06T23:38:49.398Z,65.19
2019-01-06T23:41:36.443Z,65.12
2019-01-06T23:44:34.171Z,64.99
2019-01-06T23:47:34.757Z,65.05
2019-01-06T23:50:18.394Z,65.05
2019-01-06T23:53:09.656Z,64.94
2019-01-06T23:56:04.576Z,65.00
2019-01-06T23:58:51.926Z,64.83
